Latest Weather Observations for Tennant Creek

IDD60801

Issued at 10:05 am CST Tuesday 21 October 2014 (issued every 30 minutes, with the page automatically refreshed every 10 minutes)

About weather observations | Map of weather stations | Latest weather observations for NT | Other Formats
Station Details ID: 015135 Name: TENNANT CREEK AIRPORT Lat: -19.64 Lon: 134.18 Height: 375.7 m
Data from the previous 72 hours. | See also: Recent months at Tennant Creek
Date/Time
CST
Temp
°C
App
Temp
°C
Dew
Point
Rel
Hum
%
Delta-T
°C
Wind Press
QNH
hPa
Press
MSL
hPa
Rain
since 9 am
mm
Dir
 
Spd
km/h
Gust
km/h
Spd
kts
Gust
kts
21/10:00am 32.0 26.4 7.0 21 13.8 NNE 26 39 14 21 1019.2 - 0.0
21/09:30am 31.2 27.9 10.8 28 11.9 NNE 19 28 10 15 1019.4 - 0.0
21/09:00am 29.6 26.5 11.5 32 10.6 N 19 24 10 13 1019.5 1017.0 0.0
21/08:30am 28.5 26.6 11.8 35 9.8 N 13 22 7 12 1019.6 - 0.0
21/08:00am 26.6 25.3 11.4 38 8.8 NNE 9 13 5 7 1019.3 - 0.0
21/07:30am 25.6 23.6 10.1 37 8.7 NE 11 20 6 11 1019.1 - 0.0
21/07:00am 23.6 20.4 3.3 26 10.0 ENE 9 11 5 6 1018.6 - 0.0
21/06:30am 22.2 17.9 1.0 24 9.9 E 13 17 7 9 1018.3 - 0.0
21/06:00am 22.4 18.1 1.0 24 10.0 E 13 17 7 9 1017.9 1015.3 0.0
21/05:30am 23.2 19.3 1.2 23 10.4 E 11 13 6 7 1017.3 - 0.0
21/05:00am 22.3 18.4 0.9 24 10.0 ENE 11 15 6 8 1017.0 - 0.0
21/04:30am 22.4 18.9 1.4 25 9.9 E 9 13 5 7 1016.3 - 0.0
21/04:00am 22.7 18.7 0.2 22 10.4 E 11 13 6 7 1016.1 - 0.0
21/03:30am 23.2 19.6 0.5 22 10.6 E 9 13 5 7 1016.0 - 0.0
21/03:00am 24.2 19.8 0.3 20 11.2 E 13 20 7 11 1015.8 1013.3 0.0
21/02:30am 23.8 20.3 1.3 22 10.7 E 9 11 5 6 1015.7 - 0.0
21/02:00am 24.2 20.6 0.7 21 11.1 E 9 11 5 6 1015.8 - 0.0
21/01:30am 24.9 20.9 0.2 19 11.6 E 11 15 6 8 1016.0 - 0.0
21/01:00am 25.9 21.3 -0.7 17 12.4 ENE 13 15 7 8 1016.2 - 0.0
21/12:30am 26.5 20.8 -3.8 13 13.4 E 17 22 9 12 1016.5 - 0.0
21/12:00am 26.3 21.4 -3.4 14 13.2 E 13 17 7 9 1016.7 1014.2 0.0
 
Date/Time
CST
Temp
°C
App
Temp
°C
Dew
Point
Rel
Hum
%
Delta-T
°C
Wind Press
QNH
hPa
Press
MSL
hPa
Rain
since 9 am
mm
Dir
 
Spd
km/h
Gust
km/h
Spd
kts
Gust
kts
20/11:30pm 26.0 21.6 -2.7 15 12.9 E 11 13 6 7 1016.7 - 0.0
20/11:00pm 26.8 22.9 -1.6 15 13.1 E 9 13 5 7 1016.8 - 0.0
20/10:30pm 26.7 22.0 -1.9 15 13.1 E 13 15 7 8 1017.0 - 0.0
20/10:00pm 27.2 23.0 -0.6 16 13.1 E 11 13 6 7 1016.9 - 0.0
20/09:30pm 27.3 23.7 0.4 17 12.9 E 9 11 5 6 1016.8 - 0.0
20/09:00pm 27.9 25.2 3.6 21 12.4 E 7 11 4 6 1016.5 1014.0 0.0
20/08:30pm 28.7 25.5 0.5 16 13.7 ESE 7 9 4 5 1016.2 - 0.0
20/08:00pm 29.7 26.3 -0.9 13 14.6 ESE 7 13 4 7 1015.9 - 0.0
20/07:30pm 30.5 27.4 0.3 14 14.8 ESE 6 9 3 5 1015.5 - 0.0
20/07:00pm 32.1 28.1 -2.2 11 16.3 E 9 13 5 7 1015.1 - 0.0
20/06:30pm 33.4 28.0 -4.5 8 17.5 ESE 15 24 8 13 1014.7 - 0.0
20/06:00pm 34.4 29.1 -3.4 9 17.9 ESE 15 26 8 14 1014.4 1011.9 0.0
20/05:30pm 34.7 28.8 -1.9 9 17.8 ESE 19 26 10 14 1014.1 - 0.0
20/05:00pm 35.0 30.0 -1.0 10 17.8 E 15 26 8 14 1013.9 - 0.0
20/04:30pm 34.9 31.0 1.0 11 17.3 ESE 11 20 6 11 1013.9 - 0.0
20/04:00pm 35.5 29.6 -1.0 10 18.1 ENE 20 30 11 16 1014.2 - 0.0
20/03:30pm 35.0 29.3 0.3 11 17.5 ENE 20 26 11 14 1014.4 - 0.0
20/03:00pm 35.2 30.6 -1.4 9 18.0 ESE 13 28 7 15 1014.6 1012.1 0.0
20/02:30pm 34.9 28.4 0.1 11 17.5 SSE 24 30 13 16 1015.1 - 0.0
20/02:00pm 34.5 28.3 -0.2 11 17.3 E 22 32 12 17 1015.6 - 0.0
20/01:30pm 34.3 29.2 0.6 12 17.0 ENE 17 30 9 16 1016.1 - 0.0
20/01:00pm 33.7 28.4 2.0 13 16.3 NE 19 33 10 18 1016.6 - 0.0
20/12:30pm 33.6 27.4 -0.4 11 16.8 ENE 22 30 12 16 1017.2 - 0.0
20/12:00pm 33.5 29.2 3.0 14 15.9 ENE 15 28 8 15 1017.9 1015.3 0.0
20/11:30am 33.3 27.6 2.6 14 15.9 ENE 22 32 12 17 1018.4 - 0.0
20/11:00am 31.9 26.9 4.5 18 14.5 NE 20 32 11 17 1018.9 - 0.0
20/10:30am 31.8 26.9 4.3 17 14.5 NE 19 28 10 15 1019.2 - 0.0
20/10:00am 31.5 25.6 6.0 20 13.8 ENE 26 39 14 21 1019.5 - 0.0
20/09:30am 30.5 27.2 9.7 27 11.9 NNE 17 26 9 14 1019.7 - 0.0
20/09:00am 29.3 28.2 15.3 42 8.7 N 15 22 8 12 1019.6 1017.1 0.0
20/08:30am 28.2 26.9 14.8 44 8.2 N 15 22 8 12 1019.5 - 0.0
20/08:00am 26.7 24.6 13.7 44 7.8 N 17 26 9 14 1019.2 - 0.0
20/07:30am 25.4 22.7 12.8 45 7.4 N 19 28 10 15 1018.6 - 0.0
20/07:00am 23.6 21.6 13.8 54 5.8 NNE 17 24 9 13 1018.3 - 0.0
20/06:30am 22.7 20.5 13.3 55 5.5 NNE 17 24 9 13 1017.9 - 0.0
20/06:00am 22.6 19.9 13.0 54 5.6 NNE 19 26 10 14 1017.4 1014.9 0.0
20/05:30am 22.9 19.7 11.3 48 6.6 NNE 19 24 10 13 1017.1 - 0.0
20/05:00am 23.5 20.3 11.2 46 7.0 NNE 19 24 10 13 1016.7 - 0.0
20/04:30am 24.2 21.5 11.7 45 7.2 NNE 17 24 9 13 1016.3 - 0.0
20/04:00am 24.3 20.7 10.0 40 8.0 NNE 19 26 10 14 1016.1 - 0.0
20/03:30am 22.7 19.4 4.3 30 9.2 ENE 11 13 6 7 1016.1 - 0.0
20/03:00am 23.0 18.5 1.9 25 10.1 E 15 17 8 9 1016.0 1013.5 0.0
20/02:30am 25.0 21.1 3.6 25 10.7 E 13 20 7 11 1015.8 - 0.0
20/02:00am 24.2 20.8 3.8 26 10.2 ENE 11 11 6 6 1015.7 - 0.0
20/01:30am 24.6 21.0 2.9 24 10.7 E 11 13 6 7 1015.9 - 0.0
20/01:00am 24.7 21.2 3.4 25 10.6 E 11 13 6 7 1016.1 - 0.0
20/12:30am 25.5 22.5 3.9 24 10.9 E 9 11 5 6 1016.2 - 0.0
20/12:00am 26.4 23.2 3.0 22 11.7 E 9 11 5 6 1016.2 1013.7 0.0
 
Date/Time
CST
Temp
°C
App
Temp
°C
Dew
Point
Rel
Hum
%
Delta-T
°C
Wind Press
QNH
hPa
Press
MSL
hPa
Rain
since 9 am
mm
Dir
 
Spd
km/h
Gust
km/h
Spd
kts
Gust
kts
19/11:30pm 26.1 23.0 3.4 23 11.4 E 9 11 5 6 1016.5 - 0.0
19/11:00pm 26.9 22.7 1.5 19 12.4 E 13 15 7 8 1016.7 - 0.0
19/10:30pm 26.5 22.9 2.8 21 11.8 ENE 11 13 6 7 1016.7 - 0.0
19/10:00pm 27.4 24.5 4.6 23 11.8 E 9 11 5 6 1016.6 - 0.0
19/09:30pm 27.7 24.8 4.5 22 12.0 E 9 11 5 6 1016.4 - 0.0
19/09:00pm 28.2 25.3 4.8 22 12.2 E 9 11 5 6 1016.1 1013.6 0.0
19/08:30pm 28.3 25.4 4.4 21 12.4 ENE 9 11 5 6 1015.8 - 0.0
19/08:00pm 29.2 26.3 4.8 21 12.8 E 9 11 5 6 1015.6 - 0.0
19/07:30pm 30.4 27.9 6.5 22 13.0 E 9 13 5 7 1015.2 - 0.0
19/07:00pm 31.7 28.8 4.9 18 14.3 E 9 13 5 7 1014.7 - 0.0
19/06:30pm 33.4 31.6 9.6 23 13.8 NE 9 11 5 6 1014.4 - 0.0
19/06:00pm 34.8 31.9 4.6 15 16.3 ENE 9 13 5 7 1014.3 1011.8 0.0
19/05:30pm 35.1 32.1 4.2 14 16.6 ENE 9 20 5 11 1014.0 - 0.0
19/05:00pm 35.6 30.2 2.4 12 17.4 E 20 30 11 16 1013.8 - 0.0
19/04:30pm 35.8 29.8 1.2 11 17.8 E 22 33 12 18 1013.8 - 0.0
19/04:00pm 35.8 32.6 3.2 13 17.3 N 9 20 5 11 1013.7 - 0.0
19/03:30pm 35.4 30.6 2.7 13 17.2 E 17 28 9 15 1014.0 - 0.0
19/03:00pm 36.1 32.3 1.6 11 17.9 ENE 11 22 6 12 1014.0 1011.5 0.0
19/02:30pm 35.4 30.5 1.8 12 17.4 E 17 33 9 18 1014.4 - 0.0
19/02:00pm 34.9 29.9 3.4 14 16.7 NNE 19 28 10 15 1015.0 - 0.0
19/01:30pm 35.4 31.3 4.1 14 16.8 NE 15 26 8 14 1015.4 - 0.0
19/01:00pm 34.4 29.2 3.3 14 16.4 E 20 30 11 16 1015.9 - 0.0
19/12:30pm 33.8 29.0 2.6 14 16.2 NE 17 26 9 14 1016.4 - 0.0
19/12:00pm 34.5 29.2 2.0 13 16.8 NE 19 32 10 17 1016.9 1014.4 0.0
19/11:30am 33.7 29.5 1.6 13 16.4 NE 13 22 7 12 1017.5 - 0.0
19/11:00am 32.9 28.9 4.9 17 15.0 E 15 33 8 18 1018.2 - 0.0
19/10:30am 32.2 28.4 4.1 17 14.8 E 13 24 7 13 1018.5 - 0.0
19/10:00am 31.5 26.4 0.6 14 15.3 ENE 17 32 9 17 1018.7 - 0.0
19/09:30am 31.0 27.0 2.6 16 14.5 NE 13 24 7 13 1018.9 - 0.0
19/09:00am 30.1 26.4 4.2 19 13.5 NE 13 20 7 11 1018.9 1016.4 0.0
19/08:30am 29.0 24.8 1.9 17 13.5 E 13 17 7 9 1018.9 - 0.0
19/08:00am 26.7 21.5 -2.8 14 13.3 E 15 17 8 9 1018.7 - 0.0
19/07:30am 24.2 18.4 -8.7 10 13.0 E 15 17 8 9 1018.5 - 0.0
19/07:00am 22.3 16.7 -10.7 10 12.3 E 13 17 7 9 1018.4 - 0.0
19/06:30am 20.3 14.7 -10.7 11 11.3 E 13 15 7 8 1018.1 - 0.0
19/06:00am 20.0 14.0 -11.0 11 11.2 E 15 17 8 9 1017.9 1015.3 0.0
19/05:30am 20.7 14.3 -12.2 10 11.7 E 17 22 9 12 1017.4 - 0.0
19/05:00am 22.3 14.1 -13.9 8 12.7 E 26 32 14 17 1017.2 - 0.0
19/04:30am 22.0 13.4 -13.5 8 12.5 NE 28 39 15 21 1017.2 - 0.0
19/04:00am 22.3 16.2 -13.0 8 12.6 E 15 22 8 12 1016.2 - 0.0
19/03:30am 22.3 16.2 -13.0 8 12.6 E 15 20 8 11 1016.0 - 0.0
19/03:00am 23.0 17.3 -13.3 8 13.0 E 13 20 7 11 1015.9 1013.4 0.0
19/02:30am 23.8 17.2 -14.2 7 13.5 E 17 22 9 12 1015.9 - 0.0
19/02:00am 23.1 17.0 -12.1 8 12.9 E 15 20 8 11 1015.9 - 0.0
19/01:30am 23.9 17.8 -12.8 8 13.4 E 15 22 8 12 1016.2 - 0.0
19/01:00am 23.7 18.1 -11.2 9 13.1 E 13 17 7 9 1016.4 - 0.0
19/12:30am 24.1 18.4 -12.0 8 13.4 E 13 15 7 8 1016.4 - 0.0
19/12:00am 23.7 18.0 -12.0 8 13.2 E 13 15 7 8 1016.6 1014.1 0.0
 
Date/Time
CST
Temp
°C
App
Temp
°C
Dew
Point
Rel
Hum
%
Delta-T
°C
Wind Press
QNH
hPa
Press
MSL
hPa
Rain
since 9 am
mm
Dir
 
Spd
km/h
Gust
km/h
Spd
kts
Gust
kts
18/11:30pm 23.5 18.5 -8.4 11 12.6 E 11 13 6 7 1016.9 - 0.0
18/11:00pm 24.3 18.7 -10.4 9 13.3 E 13 15 7 8 1017.0 - 0.0
18/10:30pm 24.2 19.3 -7.4 11 12.8 E 11 11 6 6 1017.0 - 0.0
18/10:00pm 25.1 20.3 -10.2 9 13.7 E 9 13 5 7 1016.9 - 0.0
18/09:30pm 25.6 20.8 -10.5 8 14.0 E 9 13 5 7 1016.8 - 0.0
18/09:00pm 26.3 21.5 -9.9 8 14.3 ESE 9 13 5 7 1016.6 1014.1 0.0
18/08:30pm 26.8 22.3 -6.8 10 14.1 E 9 11 5 6 1016.5 - 0.0
18/08:00pm 27.3 22.6 -8.9 8 14.7 E 9 11 5 6 1016.1 - 0.0
18/07:30pm 28.2 24.1 -6.3 10 14.8 E 7 9 4 5 1015.9 - 0.0
18/07:00pm 29.2 24.7 -7.2 9 15.5 E 9 9 5 5 1015.7 - 0.0
18/06:30pm 31.3 26.3 -8.6 7 16.9 ENE 11 15 6 8 1015.3 - 0.0
18/06:00pm 33.3 27.2 -13.3 4 18.6 E 15 24 8 13 1014.8 1012.3 0.0
18/05:30pm 33.7 28.7 -14.0 4 18.9 NE 9 17 5 9 1014.4 - 0.0
18/05:00pm 34.2 28.7 -16.5 3 19.4 NE 11 20 6 11 1014.1 - 0.0
18/04:30pm 34.5 27.4 -16.9 3 19.6 E 19 26 10 14 1014.0 - 0.0
18/04:00pm 34.6 27.5 -13.8 4 19.4 ENE 20 39 11 21 1014.1 - 0.0
18/03:30pm 34.1 26.2 -13.7 4 19.1 E 24 33 13 18 1014.3 - 0.0
18/03:00pm 34.0 27.4 -14.3 4 19.1 ESE 17 32 9 17 1014.5 1012.0 0.0
18/02:30pm 34.7 27.4 -16.7 3 19.7 E 20 35 11 19 1015.0 - 0.0
18/02:00pm 33.3 27.2 -13.4 4 18.6 NE 15 28 8 15 1015.4 - 0.0
18/01:30pm 33.7 25.6 -17.9 3 19.2 E 24 33 13 18 1015.9 - 0.0
18/01:00pm 33.9 26.9 -12.0 5 18.8 NE 20 33 11 18 1016.5 - 0.0
18/12:30pm 32.1 25.7 -12.4 5 17.8 NE 17 33 9 18 1017.3 - 0.0
18/12:00pm 32.9 26.4 -12.8 4 18.3 NE 17 30 9 16 1017.8 1015.2 0.0
18/11:30am 32.5 25.4 -14.2 4 18.2 NE 20 35 11 19 1018.2 - 0.0
18/11:00am 31.8 23.5 -15.3 4 17.9 ENE 26 35 14 19 1018.7 - 0.0
18/10:30am 31.0 22.1 -18.6 3 17.7 E 28 46 15 25 1019.2 - 0.0
18/10:27am 30.7 21.8 -19.6 3 17.6 E 28 46 15 25 1019.2 - 0.0

Other Formats:

Comma delimited format used in spreadsheet applications
http://www.bom.gov.au/fwo/IDD60801/IDD60801.94238.axf

JavaScript Object Notation format (JSON) in row-major order
http://www.bom.gov.au/fwo/IDD60801/IDD60801.94238.json